Airfield :
LOGIN :

Register | Disclaimer

   EN    FR    IT 

 










Legend :    VFR   Marginal VFR   IFR   Intensive IFR   Very Intensive IFR
Visi :
Ceiling :
>= 8 km
>= 3000ft
5 to 8 km
1000 to 3000 ft
1500m to 5 km
500 to 1000 ft
800 to 1500m
200 to 500 ft
< 800m
< 200 ft
Symbols :   Thunderstorms  Fog  Heavy snow  Heavy precipitations  Wind > 20 kt
SIGMETs :     Misc.  Thunderstorms  Icing  Turbulence  Mountain Waves  Volcanic Ashes







- Airport Elevation : 59 ft
- IATA code : TSF


LIPH - Treviso

CURRENT METAR :
  • 230620Z 25003KT 230V290 9999 FEW040 BKN070 15/13 Q1013

EXPIRED METARs :
  • 230550Z 24002KT 9999 -RA FEW040 BKN070 15/13 Q1013
  • 230520Z VRB01KT 9999 FEW040 BKN070 15/13 Q1013
  • 230450Z AUTO VRB02KT 9999 OVC051/// 15/13 Q1013
  • 230420Z AUTO VRB01KT 9999 SCT051/// BKN065/// BKN120/// 14/13 Q1013

TAF TAF LIPH
Valid from the 23 at 06:00 until the 24 at 06:00 UTC


230500Z 2306/2406 VRB05KT 9999 SCT030 BKN060
TEMPO 2312/2318 4000 TSRA
No reported NOTAMs for that airfield.



MET'MAP, your aeronautical weather chart ! - Copyright ORBIFLY December 2007 - Disclaimer

ORBIFLY MET'MAP TEAM :

Programming & Development : Alexandra Zaïnal
Concept & Development : Baudouin d'Aumeries
Co-Development & Prog : Marc-Olivier Méhu
Technical & hardware support : Manuel Goepfert

Contact : metmap@orbifly.com




SOURCES & CREDITS :

   NOAA